createdAt,value
2022-09-11T00:01:41.848Z,6.90
2022-09-11T00:04:09.366Z,6.78
2022-09-11T00:06:35.751Z,6.47
2022-09-11T00:09:04.121Z,6.68
2022-09-11T00:11:32.981Z,7.40
2022-09-11T00:13:59.388Z,6.25
2022-09-11T00:16:26.931Z,6.43
2022-09-11T00:18:54.089Z,7.00
2022-09-11T00:21:20.922Z,6.45
2022-09-11T00:23:50.339Z,7.43
2022-09-11T00:26:17.263Z,6.68
2022-09-11T00:28:44.001Z,7.00
2022-09-11T00:31:21.931Z,8.23
2022-09-11T00:33:48.745Z,7.55
2022-09-11T00:36:16.382Z,7.35
2022-09-11T00:38:42.939Z,7.85
2022-09-11T00:41:26.464Z,6.85
2022-09-11T00:44:02.637Z,8.07
2022-09-11T00:46:31.848Z,6.30
2022-09-11T00:48:59.852Z,7.75
2022-09-11T00:51:28.331Z,8.38
2022-09-11T00:53:56.387Z,7.20
2022-09-11T00:56:23.414Z,6.43
2022-09-11T00:58:50.994Z,5.50
2022-09-11T01:01:17.474Z,7.07
2022-09-11T01:03:44.241Z,6.97
2022-09-11T01:06:10.769Z,8.32
2022-09-11T01:08:38.471Z,8.13
2022-09-11T01:11:23.829Z,8.15
2022-09-11T01:13:57.198Z,8.32
2022-09-11T01:16:32.474Z,8.00
2022-09-11T01:19:01.865Z,6.93
2022-09-11T01:21:37.778Z,8.05
2022-09-11T01:24:09.258Z,7.75
2022-09-11T01:26:38.613Z,8.02
2022-09-11T01:29:08.165Z,5.57
2022-09-11T01:31:38.507Z,7.10
2022-09-11T01:34:29.587Z,5.40
2022-09-11T01:37:05.733Z,9.10
2022-09-11T01:39:38.355Z,6.78
2022-09-11T01:42:07.104Z,5.90
2022-09-11T01:44:39.097Z,7.30
2022-09-11T01:47:10.797Z,8.40
2022-09-11T01:49:48.121Z,8.40
2022-09-11T01:52:20.037Z,8.02
2022-09-11T01:54:51.145Z,8.82
2022-09-11T01:57:22.969Z,7.72
2022-09-11T01:59:53.961Z,9.05
2022-09-11T02:02:24.797Z,6.88
2022-09-11T02:05:20.508Z,7.03
2022-09-11T02:07:55.238Z,8.57
2022-09-11T02:10:25.490Z,7.68
2022-09-11T02:13:07.656Z,7.20
2022-09-11T02:15:38.898Z,8.68
2022-09-11T02:18:12.711Z,8.05
2022-09-11T02:20:39.272Z,7.90
2022-09-11T02:23:07.138Z,8.27
2022-09-11T02:25:33.526Z,7.97
2022-09-11T02:27:59.986Z,9.48
2022-09-11T02:30:26.532Z,7.70
2022-09-11T02:32:54.709Z,9.32
2022-09-11T02:35:22.137Z,7.93
2022-09-11T02:38:13.313Z,7.40
2022-09-11T02:41:03.051Z,9.27
2022-09-11T02:43:42.164Z,8.63
2022-09-11T02:46:08.591Z,7.53
2022-09-11T02:49:00.275Z,7.18
2022-09-11T02:51:45.554Z,7.20
2022-09-11T02:54:27.099Z,8.30
2022-09-11T02:57:01.473Z,5.75
2022-09-11T02:59:35.034Z,8.43
2022-09-11T03:02:02.174Z,8.38
2022-09-11T03:04:30.008Z,6.22
2022-09-11T03:06:58.355Z,7.35
2022-09-11T03:09:24.910Z,6.95
2022-09-11T03:11:55.749Z,6.72
2022-09-11T03:14:22.429Z,7.47
2022-09-11T03:16:49.988Z,7.82
2022-09-11T03:19:18.541Z,8.05
2022-09-11T03:21:44.967Z,7.22
2022-09-11T03:24:13.202Z,8.55
2022-09-11T03:26:39.838Z,7.00
2022-09-11T03:29:06.239Z,8.18
2022-09-11T03:31:34.482Z,9.10
2022-09-11T03:36:30.350Z,8.23
2022-09-11T03:38:57.048Z,8.70
2022-09-11T03:41:23.439Z,7.97
2022-09-11T03:43:49.782Z,7.57
2022-09-11T03:46:17.717Z,10.27
2022-09-11T03:48:46.905Z,8.90
2022-09-11T03:51:14.882Z,10.90
2022-09-11T03:53:41.831Z,11.30
2022-09-11T03:56:09.942Z,10.50
2022-09-11T03:58:43.196Z,15.15
2022-09-11T04:01:14.387Z,17.10
2022-09-11T04:03:42.434Z,14.98
2022-09-11T04:06:14.606Z,16.52
2022-09-11T04:08:41.314Z,17.88
2022-09-11T04:11:11.541Z,16.33
2022-09-11T04:13:39.128Z,18.98
2022-09-11T04:16:10.466Z,17.95
2022-09-11T04:18:39.527Z,19.38
2022-09-11T04:21:12.112Z,16.05
2022-09-11T04:23:39.913Z,15.73
2022-09-11T04:26:19.714Z,15.57
2022-09-11T04:28:50.536Z,14.00
2022-09-11T04:31:18.571Z,17.65
2022-09-11T04:33:46.185Z,14.32
2022-09-11T04:36:15.145Z,16.48
2022-09-11T04:38:41.903Z,19.40
2022-09-11T04:41:11.741Z,17.10
2022-09-11T04:43:38.923Z,16.27
2022-09-11T04:46:08.403Z,20.65
2022-09-11T04:48:34.773Z,20.27
2022-09-11T04:51:08.403Z,18.55
2022-09-11T04:53:37.451Z,21.85
2022-09-11T04:56:05.683Z,22.73
2022-09-11T04:58:38.570Z,22.63
2022-09-11T05:01:13.741Z,19.73
2022-09-11T05:03:43.927Z,21.67
2022-09-11T05:06:11.403Z,23.20
2022-09-11T05:08:38.091Z,21.67
2022-09-11T05:11:06.013Z,23.27
2022-09-11T05:13:36.229Z,21.73
2022-09-11T05:16:04.126Z,21.83
2022-09-11T05:18:31.959Z,21.08
2022-09-11T05:21:04.618Z,20.60
2022-09-11T05:23:31.898Z,22.45
2022-09-11T05:26:00.828Z,20.88
2022-09-11T05:28:27.805Z,22.50
2022-09-11T05:30:54.665Z,20.38
2022-09-11T05:33:23.654Z,21.58
2022-09-11T05:35:51.267Z,23.05
2022-09-11T05:38:18.532Z,21.92
2022-09-11T05:40:45.945Z,22.67
2022-09-11T05:43:13.205Z,22.40
2022-09-11T05:45:39.613Z,21.70
2022-09-11T05:48:06.334Z,20.88
2022-09-11T05:50:36.716Z,20.58
2022-09-11T05:53:05.560Z,20.75
2022-09-11T05:55:38.488Z,20.95
2022-09-11T05:58:05.134Z,20.60
2022-09-11T06:00:32.166Z,22.10
2022-09-11T06:02:58.959Z,19.38
2022-09-11T06:05:28.830Z,19.83
2022-09-11T06:07:58.297Z,21.25
2022-09-11T06:10:24.680Z,19.48
2022-09-11T06:12:52.194Z,21.73
2022-09-11T06:15:42.914Z,22.25
2022-09-11T06:18:07.289Z,22.00
2022-09-11T06:20:33.881Z,23.50
2022-09-11T06:23:00.934Z,23.17
2022-09-11T06:25:27.666Z,24.13
2022-09-11T06:27:55.716Z,22.50
2022-09-11T06:30:22.234Z,22.30
2022-09-11T06:32:49.355Z,22.35
2022-09-11T06:35:15.860Z,22.08
2022-09-11T06:37:42.712Z,20.63
2022-09-11T06:40:09.517Z,21.13
2022-09-11T06:42:35.911Z,22.05
2022-09-11T06:45:02.639Z,23.15
2022-09-11T06:47:30.227Z,21.10
2022-09-11T06:49:57.025Z,22.08
2022-09-11T06:52:42.961Z,19.98
2022-09-11T06:55:20.827Z,19.58
2022-09-11T06:57:53.889Z,20.00
2022-09-11T07:00:25.138Z,20.58
2022-09-11T07:02:55.310Z,21.23
2022-09-11T07:05:23.071Z,19.15
2022-09-11T07:07:51.825Z,19.38
2022-09-11T07:10:18.197Z,19.13
2022-09-11T07:12:49.050Z,18.35
2022-09-11T07:15:15.694Z,18.52
2022-09-11T07:17:42.511Z,17.10
2022-09-11T07:20:11.082Z,18.65
2022-09-11T07:22:37.632Z,18.27
2022-09-11T07:25:09.021Z,16.15
2022-09-11T07:27:38.881Z,17.00
2022-09-11T07:30:06.221Z,17.33
2022-09-11T07:32:37.501Z,17.05
2022-09-11T07:35:07.592Z,15.00
2022-09-11T07:37:34.617Z,15.73
2022-09-11T07:40:01.516Z,16.23
2022-09-11T07:42:29.106Z,16.10
2022-09-11T07:44:56.836Z,15.45
2022-09-11T07:47:23.389Z,15.45
2022-09-11T07:49:51.529Z,16.85
2022-09-11T07:52:20.576Z,16.55
2022-09-11T07:54:53.953Z,16.15
2022-09-11T07:57:24.315Z,18.27
2022-09-11T07:59:52.592Z,16.42
2022-09-11T08:02:20.163Z,15.77
2022-09-11T08:04:50.001Z,15.77
2022-09-11T08:07:17.744Z,15.03
2022-09-11T08:09:44.276Z,14.00
2022-09-11T08:12:11.405Z,14.30
2022-09-11T08:14:42.604Z,13.00
2022-09-11T08:17:19.354Z,12.48
2022-09-11T08:19:46.824Z,12.75
2022-09-11T08:22:13.383Z,12.05
2022-09-11T08:24:43.722Z,12.00
2022-09-11T08:27:13.422Z,11.35
2022-09-11T08:29:41.811Z,12.52
2022-09-11T08:32:09.422Z,11.48
2022-09-11T08:34:38.363Z,12.45
2022-09-11T08:37:04.799Z,12.52
2022-09-11T08:39:33.765Z,12.00
2022-09-11T08:42:04.537Z,11.75
2022-09-11T08:44:39.118Z,11.30
2022-09-11T08:47:35.029Z,12.00
2022-09-11T08:50:01.393Z,12.35
2022-09-11T08:52:29.070Z,11.18
2022-09-11T08:54:59.257Z,10.70
2022-09-11T08:57:49.162Z,10.80
2022-09-11T09:00:22.458Z,10.70
2022-09-11T09:03:08.699Z,10.48
2022-09-11T09:05:50.138Z,9.85
2022-09-11T09:08:41.296Z,11.55
2022-09-11T09:11:26.646Z,12.75
2022-09-11T09:14:14.626Z,10.77
2022-09-11T09:16:42.433Z,10.55
2022-09-11T09:19:14.721Z,9.63
2022-09-11T09:21:45.794Z,9.60
2022-09-11T09:24:19.406Z,9.63
2022-09-11T09:26:56.095Z,8.93
2022-09-11T09:29:31.652Z,9.43
2022-09-11T09:32:04.877Z,8.88
2022-09-11T09:34:35.013Z,10.05
2022-09-11T09:37:10.777Z,9.93
2022-09-11T09:39:37.308Z,9.35
2022-09-11T09:42:16.658Z,10.07
2022-09-11T09:45:01.439Z,9.65
2022-09-11T09:47:29.805Z,9.70
2022-09-11T09:49:58.189Z,9.68
2022-09-11T09:52:26.154Z,11.13
2022-09-11T09:54:54.906Z,10.40
2022-09-11T09:57:23.491Z,12.50
2022-09-11T09:59:49.782Z,8.93
2022-09-11T10:02:36.892Z,8.48
2022-09-11T10:05:14.904Z,9.57
2022-09-11T10:07:51.643Z,9.55
2022-09-11T10:10:22.549Z,9.35
2022-09-11T10:12:48.914Z,9.55
2022-09-11T10:15:19.629Z,10.27
2022-09-11T10:17:46.059Z,11.13
2022-09-11T10:20:37.661Z,10.98
2022-09-11T10:23:23.399Z,9.50
2022-09-11T10:25:52.343Z,9.88
2022-09-11T10:28:23.119Z,8.25
2022-09-11T10:30:53.372Z,9.65
2022-09-11T10:33:29.204Z,8.75
2022-09-11T10:35:56.124Z,8.30
2022-09-11T10:38:27.000Z,8.20
2022-09-11T10:40:56.638Z,7.07
2022-09-11T10:43:25.482Z,10.07
2022-09-11T10:46:02.329Z,8.23
2022-09-11T10:48:32.562Z,7.38
2022-09-11T10:51:09.757Z,5.95
2022-09-11T10:53:48.067Z,6.35
2022-09-11T10:56:15.114Z,6.72
2022-09-11T10:58:43.040Z,6.68
2022-09-11T11:01:09.916Z,7.38
2022-09-11T11:03:36.545Z,7.75
2022-09-11T11:06:11.851Z,7.80
2022-09-11T11:08:57.475Z,6.85
2022-09-11T11:11:42.870Z,6.80
2022-09-11T11:14:18.337Z,6.15
2022-09-11T11:16:45.647Z,6.00
2022-09-11T11:19:15.068Z,7.00
2022-09-11T11:21:54.825Z,6.28
2022-09-11T11:24:46.459Z,6.20
2022-09-11T11:27:19.030Z,7.82
2022-09-11T11:29:51.471Z,6.03
2022-09-11T11:32:28.433Z,5.72
2022-09-11T11:35:01.533Z,5.30
2022-09-11T11:37:35.985Z,5.55
2022-09-11T11:40:10.491Z,5.95
2022-09-11T11:42:36.891Z,4.93
2022-09-11T11:45:09.347Z,4.68
2022-09-11T11:47:38.035Z,5.25
2022-09-11T11:50:22.874Z,5.70
2022-09-11T11:53:08.364Z,5.68
2022-09-11T11:55:57.019Z,5.85
2022-09-11T11:58:32.283Z,5.75
2022-09-11T12:01:01.651Z,6.00
2022-09-11T12:03:33.825Z,5.38
2022-09-11T12:06:00.405Z,6.13
2022-09-11T12:08:27.770Z,6.05
2022-09-11T12:11:03.010Z,5.40
2022-09-11T12:13:31.365Z,5.50
2022-09-11T12:16:18.042Z,5.63
2022-09-11T12:19:04.309Z,5.35
2022-09-11T12:21:31.618Z,5.82
2022-09-11T12:23:58.092Z,5.40
2022-09-11T12:26:25.438Z,5.10
2022-09-11T12:29:14.540Z,4.70
2022-09-11T12:31:49.750Z,4.30
2022-09-11T12:34:17.473Z,4.72
2022-09-11T12:36:54.018Z,4.32
2022-09-11T12:39:26.595Z,4.85
2022-09-11T12:41:53.590Z,4.88
2022-09-11T12:44:30.781Z,5.00
2022-09-11T12:46:57.125Z,5.20
2022-09-11T12:49:25.060Z,7.78
2022-09-11T12:51:56.053Z,7.85
2022-09-11T12:56:51.506Z,7.95
2022-09-11T12:59:25.764Z,5.15
2022-09-11T13:01:52.502Z,5.57
2022-09-11T13:04:21.858Z,5.10
2022-09-11T13:06:54.722Z,4.85
2022-09-11T13:09:23.453Z,5.03
2022-09-11T13:11:51.388Z,4.90
2022-09-11T13:14:28.066Z,4.78
2022-09-11T13:16:54.994Z,5.10
2022-09-11T13:19:21.838Z,5.60
2022-09-11T13:21:56.747Z,4.70
2022-09-11T13:24:27.733Z,5.10
2022-09-11T13:29:22.966Z,5.15
2022-09-11T13:31:49.773Z,5.88
2022-09-11T13:34:18.247Z,5.18
2022-09-11T13:36:46.982Z,4.72
2022-09-11T13:39:14.535Z,5.10
2022-09-11T13:41:43.718Z,5.10
2022-09-11T13:44:11.999Z,5.13
2022-09-11T13:46:48.662Z,4.65
2022-09-11T13:49:18.105Z,4.10
2022-09-11T13:51:45.200Z,3.83
2022-09-11T13:54:14.411Z,3.10
2022-09-11T13:56:47.335Z,2.78
2022-09-11T13:59:26.812Z,2.85
2022-09-11T14:01:55.576Z,2.88
2022-09-11T14:04:22.477Z,3.25
2022-09-11T14:06:49.037Z,2.90
2022-09-11T14:09:18.219Z,2.95
2022-09-11T14:11:44.919Z,3.00
2022-09-11T14:14:13.873Z,3.17
2022-09-11T14:16:55.294Z,3.15
2022-09-11T14:19:26.991Z,3.15
2022-09-11T14:21:53.448Z,3.33
2022-09-11T14:24:22.893Z,3.05
2022-09-11T14:26:49.487Z,2.75
2022-09-11T14:29:29.207Z,2.55
2022-09-11T14:32:15.642Z,3.20
2022-09-11T14:34:42.118Z,2.70
2022-09-11T14:37:12.532Z,3.25
2022-09-11T14:39:42.868Z,3.05
2022-09-11T14:42:12.780Z,3.30
2022-09-11T14:44:40.382Z,4.32
2022-09-11T14:47:06.936Z,3.55
2022-09-11T14:49:33.426Z,4.10
2022-09-11T14:52:00.690Z,3.80
2022-09-11T14:54:31.153Z,4.13
2022-09-11T14:56:59.129Z,3.55
2022-09-11T14:59:25.755Z,3.70
2022-09-11T15:01:52.361Z,3.22
2022-09-11T15:04:20.211Z,2.80
2022-09-11T15:06:55.407Z,2.67
2022-09-11T15:09:22.675Z,3.00
2022-09-11T15:11:51.673Z,2.42
2022-09-11T15:14:32.560Z,5.20
2022-09-11T15:17:06.941Z,2.80
2022-09-11T15:19:35.220Z,3.25
2022-09-11T15:22:01.643Z,2.95
2022-09-11T15:24:28.311Z,3.13
2022-09-11T15:26:54.887Z,2.80
2022-09-11T15:29:21.888Z,2.75
2022-09-11T15:31:48.848Z,2.40
2022-09-11T15:34:16.051Z,2.53
2022-09-11T15:36:43.052Z,2.83
2022-09-11T15:39:12.231Z,2.42
2022-09-11T15:41:39.025Z,2.65
2022-09-11T15:44:13.015Z,2.60
2022-09-11T15:46:39.721Z,2.88
2022-09-11T15:49:08.816Z,2.60
2022-09-11T15:51:35.225Z,2.83
2022-09-11T15:54:02.603Z,2.67
2022-09-11T15:56:29.147Z,3.00
2022-09-11T15:58:59.052Z,2.75
2022-09-11T16:01:29.890Z,1.73
2022-09-11T16:03:57.847Z,2.58
2022-09-11T16:06:25.784Z,2.53
2022-09-11T16:08:55.746Z,1.85
2022-09-11T16:11:22.170Z,2.28
2022-09-11T16:13:52.114Z,1.70
2022-09-11T16:16:19.099Z,2.15
2022-09-11T16:18:45.911Z,2.25
2022-09-11T16:21:13.297Z,2.03
2022-09-11T16:23:40.899Z,2.17
2022-09-11T16:26:12.188Z,2.20
2022-09-11T16:28:39.851Z,2.10
2022-09-11T16:31:07.354Z,2.17
2022-09-11T16:33:36.279Z,2.10
2022-09-11T16:36:05.572Z,1.95
2022-09-11T16:38:32.597Z,2.00
2022-09-11T16:41:08.155Z,1.70
2022-09-11T16:43:38.656Z,1.70
2022-09-11T16:46:05.243Z,2.00
2022-09-11T16:48:32.004Z,2.13
2022-09-11T16:50:58.380Z,2.40
2022-09-11T16:53:28.769Z,2.05
2022-09-11T16:55:55.617Z,2.20
2022-09-11T16:58:22.577Z,2.22
2022-09-11T17:00:49.431Z,2.20
2022-09-11T17:03:17.045Z,2.40
2022-09-11T17:05:50.532Z,2.70
2022-09-11T17:08:17.399Z,2.53
2022-09-11T17:10:44.705Z,1.90
2022-09-11T17:13:11.352Z,2.10
2022-09-11T17:15:37.925Z,2.65
2022-09-11T17:18:04.607Z,2.08
2022-09-11T17:20:30.976Z,2.20
2022-09-11T17:22:58.290Z,2.38
2022-09-11T17:25:25.818Z,2.30
2022-09-11T17:27:52.218Z,2.40
2022-09-11T17:30:18.830Z,2.33
2022-09-11T17:32:45.498Z,2.53
2022-09-11T17:35:12.106Z,2.92
2022-09-11T17:37:38.530Z,2.80
2022-09-11T17:40:05.916Z,4.05
2022-09-11T17:42:32.871Z,2.65
2022-09-11T17:44:59.995Z,2.58
2022-09-11T17:47:33.982Z,2.67
2022-09-11T17:50:03.544Z,2.63
2022-09-11T17:52:31.396Z,2.72
2022-09-11T17:54:57.808Z,2.45
2022-09-11T17:57:25.515Z,2.53
2022-09-11T17:59:52.707Z,3.10
2022-09-11T18:02:19.871Z,2.60
2022-09-11T18:04:49.435Z,2.90
2022-09-11T18:07:16.403Z,2.63
2022-09-11T18:09:42.770Z,3.05
2022-09-11T18:12:10.075Z,3.30
2022-09-11T18:14:37.585Z,3.10
2022-09-11T18:17:04.393Z,3.30
2022-09-11T18:19:30.897Z,2.75
2022-09-11T18:21:57.533Z,3.22
2022-09-11T18:24:24.260Z,3.13
2022-09-11T18:26:55.078Z,3.17
2022-09-11T18:29:23.790Z,3.28
2022-09-11T18:31:51.983Z,3.20
2022-09-11T18:34:23.152Z,2.97
2022-09-11T18:39:19.615Z,3.40
2022-09-11T18:41:46.416Z,3.10
2022-09-11T18:44:19.314Z,3.42
2022-09-11T18:46:46.301Z,3.85
2022-09-11T18:49:13.425Z,3.40
2022-09-11T18:51:40.228Z,4.00
2022-09-11T18:54:06.589Z,4.18
2022-09-11T18:56:33.170Z,4.05
2022-09-11T18:59:00.318Z,4.03
2022-09-11T19:01:33.406Z,4.50
2022-09-11T19:04:00.197Z,4.15
2022-09-11T19:06:28.698Z,4.68
2022-09-11T19:08:55.750Z,5.13
2022-09-11T19:11:25.968Z,4.55
2022-09-11T19:13:53.217Z,4.80
2022-09-11T19:16:21.637Z,5.47
2022-09-11T19:18:48.471Z,6.00
2022-09-11T19:21:16.246Z,5.13
2022-09-11T19:23:43.658Z,5.88
2022-09-11T19:26:17.312Z,5.40
2022-09-11T19:28:44.424Z,5.70
2022-09-11T19:31:12.531Z,5.47
2022-09-11T19:33:39.468Z,5.80
2022-09-11T19:36:09.615Z,5.88
2022-09-11T19:38:37.394Z,5.90
2022-09-11T19:41:04.194Z,6.63
2022-09-11T19:43:31.239Z,7.68
2022-09-11T19:46:11.222Z,6.10
2022-09-11T19:48:37.898Z,6.90
2022-09-11T19:51:12.229Z,8.57
2022-09-11T19:53:39.243Z,8.88
2022-09-11T19:56:06.328Z,7.63
2022-09-11T19:58:33.089Z,7.95
2022-09-11T20:01:03.391Z,8.68
2022-09-11T20:03:30.539Z,8.23
2022-09-11T20:05:57.372Z,7.50
2022-09-11T20:08:23.718Z,7.60
2022-09-11T20:10:50.254Z,7.90
2022-09-11T20:13:16.737Z,7.63
2022-09-11T20:15:43.491Z,8.07
2022-09-11T20:18:10.344Z,8.63
2022-09-11T20:20:37.096Z,8.02
2022-09-11T20:23:03.905Z,7.00
2022-09-11T20:25:30.515Z,9.15
2022-09-11T20:28:00.403Z,8.48
2022-09-11T20:30:27.547Z,9.50
2022-09-11T20:32:53.899Z,8.23
2022-09-11T20:35:20.309Z,7.90
2022-09-11T20:37:46.694Z,8.13
2022-09-11T20:40:13.190Z,7.35
2022-09-11T20:42:39.854Z,7.88
2022-09-11T20:45:06.507Z,8.20
2022-09-11T20:47:32.895Z,7.57
2022-09-11T20:50:00.657Z,9.63
2022-09-11T20:52:27.281Z,7.88
2022-09-11T20:54:54.333Z,7.32
2022-09-11T20:57:20.763Z,7.80
2022-09-11T20:59:47.223Z,9.38
2022-09-11T21:02:14.765Z,7.05
2022-09-11T21:04:41.226Z,7.38
2022-09-11T21:07:07.636Z,7.43
2022-09-11T21:09:34.174Z,8.93
2022-09-11T21:12:00.579Z,7.55
2022-09-11T21:14:27.045Z,7.68
2022-09-11T21:16:53.530Z,8.35
2022-09-11T21:19:19.975Z,7.22
2022-09-11T21:21:46.485Z,8.15
2022-09-11T21:24:13.186Z,6.88
2022-09-11T21:26:39.890Z,7.90
2022-09-11T21:29:07.966Z,8.02
2022-09-11T21:31:35.177Z,8.68
2022-09-11T21:34:01.880Z,7.65
2022-09-11T21:36:28.682Z,7.90
2022-09-11T21:38:55.082Z,7.15
2022-09-11T21:41:21.503Z,8.93
2022-09-11T21:43:48.025Z,7.53
2022-09-11T21:46:14.418Z,7.38
2022-09-11T21:48:41.254Z,6.82
2022-09-11T21:51:15.219Z,8.00
2022-09-11T21:53:42.849Z,6.90
2022-09-11T21:56:19.936Z,7.47
2022-09-11T21:58:47.206Z,8.00
2022-09-11T22:01:14.151Z,7.50
2022-09-11T22:03:42.473Z,7.38
2022-09-11T22:06:10.248Z,6.32
2022-09-11T22:08:41.259Z,6.43
2022-09-11T22:11:07.653Z,6.07
2022-09-11T22:13:37.082Z,6.82
2022-09-11T22:16:07.123Z,5.70
2022-09-11T22:18:38.912Z,6.18
2022-09-11T22:21:05.657Z,6.13
2022-09-11T22:23:32.262Z,6.35
2022-09-11T22:26:05.084Z,5.82
2022-09-11T22:28:31.603Z,5.25
2022-09-11T22:30:57.951Z,6.00
2022-09-11T22:33:24.487Z,6.70
2022-09-11T22:35:51.055Z,6.38
2022-09-11T22:38:17.476Z,5.63
2022-09-11T22:40:43.956Z,5.20
2022-09-11T22:43:10.328Z,4.90
2022-09-11T22:45:37.314Z,5.32
2022-09-11T22:48:03.803Z,5.40
2022-09-11T22:50:31.044Z,5.40
2022-09-11T22:52:57.396Z,5.32
2022-09-11T22:55:23.921Z,5.57
2022-09-11T22:57:50.305Z,5.00
2022-09-11T23:00:19.021Z,5.13
2022-09-11T23:02:45.376Z,4.68
2022-09-11T23:05:47.053Z,4.68
2022-09-11T23:08:13.395Z,4.40
2022-09-11T23:10:43.867Z,4.07
2022-09-11T23:13:10.230Z,4.25
2022-09-11T23:15:36.754Z,4.22
2022-09-11T23:18:03.289Z,4.45
2022-09-11T23:20:30.440Z,4.18
2022-09-11T23:22:56.828Z,4.22
2022-09-11T23:25:25.166Z,4.30
2022-09-11T23:27:53.314Z,3.60
2022-09-11T23:30:20.071Z,4.13
2022-09-11T23:32:46.521Z,4.65
2022-09-11T23:35:13.042Z,4.00
2022-09-11T23:37:42.348Z,3.80
2022-09-11T23:40:11.672Z,4.07
2022-09-11T23:42:38.033Z,3.90
2022-09-11T23:45:04.698Z,4.03
2022-09-11T23:47:31.007Z,5.05
2022-09-11T23:49:57.790Z,4.88
2022-09-11T23:52:24.090Z,3.58
2022-09-11T23:54:50.498Z,4.28
2022-09-11T23:57:16.922Z,4.53
2022-09-11T23:59:43.250Z,3.90
